Time;durP1;ratioP1;P1;durP2;ratioP2;P2;SDS_P1;SDS_P2;PMS_P1;PMS_P2;Temp;Humidity;BMP_temperature;BMP_pressure;BME280_temperature;BME280_humidity;BME280_pressure;Samples;Min_cycle;Max_cycle;Signal;HPM_P1;HPM_P2
2022/02/03 00:01:06;;;;;;;18.50;16.70;;;;;;;10.77;68.18;99510.44;5092296;28;20535;-49
2022/02/03 00:03:49;;;;;;;10.38;6.97;;;;;;;10.74;68.32;99508.16;5092225;28;20016;-49
2022/02/03 00:06:22;;;;;;;10.40;5.30;;;;;;;10.77;68.21;99510.44;5092204;28;20030;-49
2022/02/03 00:11:40;;;;;;;8.40;5.72;;;;;;;10.76;68.19;99497.50;5092004;28;20661;-49
2022/02/03 00:17:02;;;;;;;6.65;5.70;;;;;;;10.73;68.07;99496.06;5092046;28;20125;-48
2022/02/03 00:24:55;;;;;;;10.88;5.97;;;;;;;10.74;68.07;99496.88;5091948;28;20382;-49
2022/02/03 00:30:13;;;;;;;69.32;63.00;;;;;;;10.73;68.30;99496.06;5091936;28;20028;-49
2022/02/03 00:35:35;;;;;;;7.97;7.25;;;;;;;10.76;68.13;99479.94;5091878;28;20039;-49
2022/02/03 00:38:18;;;;;;;11.85;6.97;;;;;;;10.74;67.99;99478.47;5091956;28;20046;-48
2022/02/03 00:49:04;;;;;;;26.42;23.77;;;;;;;10.75;68.41;99472.25;5092072;28;20169;-49
2022/02/03 00:51:30;;;;;;;13.50;9.15;;;;;;;10.78;68.25;99477.97;5090340;28;20402;-49
2022/02/03 00:53:57;;;;;;;13.93;12.48;;;;;;;10.81;68.20;99468.91;5091690;28;20074;-49
2022/02/03 00:56:31;;;;;;;12.45;10.23;;;;;;;10.76;68.10;99464.16;5091585;28;20398;-48
2022/02/03 00:59:07;;;;;;;12.27;8.27;;;;;;;10.79;68.29;99465.63;5091693;28;20028;-49
2022/02/03 01:01:38;;;;;;;11.20;9.93;;;;;;;10.78;68.05;99462.22;5091657;28;20028;-50
2022/02/03 01:04:09;;;;;;;9.43;6.80;;;;;;;10.69;67.96;99458.03;5091541;28;20145;-49
2022/02/03 01:06:39;;;;;;;10.40;9.05;;;;;;;10.49;68.50;99465.63;5092520;28;20031;-49
2022/02/03 01:09:08;;;;;;;8.73;6.80;;;;;;;10.49;68.67;99457.75;5094228;28;20034;-49
2022/02/03 01:11:42;;;;;;;8.55;6.68;;;;;;;10.55;68.78;99456.22;5095392;28;20519;-49
2022/02/03 01:14:17;;;;;;;11.95;9.90;;;;;;;10.59;68.57;99460.94;5095411;28;20032;-48
2022/02/03 01:43:58;;;;;;;9.88;7.45;;;;;;;10.38;68.32;99452.94;5095010;28;20031;-49
2022/02/03 01:47:12;;;;;;;9.25;7.70;;;;;;;10.20;68.47;99451.47;5093459;28;20028;-49
2022/02/03 01:49:17;;;;;;;8.40;7.40;;;;;;;10.12;69.11;99454.19;5088795;28;20494;-49
2022/02/03 01:51:56;;;;;;;13.32;9.82;;;;;;;10.09;69.61;99445.84;5094651;28;20069;-49
2022/02/03 01:54:30;;;;;;;18.02;16.25;;;;;;;10.20;69.45;99451.47;5094639;28;20051;-49
2022/02/03 01:57:06;;;;;;;27.25;24.58;;;;;;;10.29;69.29;99446.16;5094588;28;20043;-49
2022/02/03 01:59:36;;;;;;;11.60;10.48;;;;;;;10.34;69.18;99451.69;5094858;28;20395;-49
2022/02/03 02:02:04;;;;;;;11.15;8.80;;;;;;;10.44;69.06;99440.94;5094411;28;20028;-49
2022/02/03 02:05:15;;;;;;;16.58;14.77;;;;;;;10.58;68.69;99447.97;5094327;28;20028;-49
2022/02/03 02:08:03;;;;;;;15.07;12.85;;;;;;;10.69;68.52;99450.16;5031912;28;20033;-49
2022/02/03 02:19:15;;;;;;;269.50;242.13;;;;;;;10.80;68.34;99435.75;5031432;28;20133;-49
2022/02/03 02:38:54;;;;;;;17.33;9.50;;;;;;;10.33;66.91;99423.84;5031457;28;20072;-48
2022/02/03 02:42:21;;;;;;;13.75;10.77;;;;;;;10.26;67.15;99413.22;5053310;28;20517;-48
2022/02/03 02:44:31;;;;;;;11.82;10.68;;;;;;;10.33;67.27;99402.84;5093356;28;20102;-49
2022/02/03 02:46:57;;;;;;;10.38;9.38;;;;;;;10.24;67.33;99401.25;5093612;28;20090;-49
2022/02/03 02:49:28;;;;;;;9.18;8.23;;;;;;;10.09;66.99;99401.25;5093460;28;20020;-48
2022/02/03 02:52:19;;;;;;;11.30;8.38;;;;;;;9.88;67.35;99401.94;5093554;28;20429;-49
2022/02/03 03:38:27;;;;;;;15.82;9.52;;;;;;;9.04;68.62;99379.16;5092600;28;20499;-49
2022/02/03 03:40:54;;;;;;;;;;;;;;;8.96;68.61;99390.50;5093035;28;20493;-49
2022/02/03 03:43:42;;;;;;;15.15;10.23;;;;;;;8.69;68.63;99378.72;5092535;28;19912;-49
2022/02/03 03:46:18;;;;;;;13.50;9.15;;;;;;;8.68;69.21;99382.28;5092446;28;20036;-48
2022/02/03 03:48:51;;;;;;;15.25;9.30;;;;;;;8.80;69.76;99393.19;5092524;28;20028;-49
2022/02/03 03:51:21;;;;;;;11.43;8.82;;;;;;;8.94;69.03;99383.81;5091083;28;20055;-49
2022/02/03 03:54:03;;;;;;;13.07;8.90;;;;;;;9.02;68.69;99382.94;5091029;28;20063;-49
2022/02/03 03:56:57;;;;;;;19.00;13.77;;;;;;;9.03;68.50;99379.34;5092323;28;20367;-49
2022/02/03 04:40:25;;;;;;;13.35;9.98;;;;;;;8.67;69.33;99370.22;5091865;28;20031;-49
2022/02/03 05:03:55;;;;;;;21.58;12.18;;;;;;;8.61;70.21;99344.72;5095646;28;20036;-48
2022/02/03 05:07:33;;;;;;;21.10;9.98;;;;;;;8.66;70.23;99347.63;5095606;28;20030;-49
2022/02/03 05:26:18;;;;;;;12.68;6.45;;;;;;;8.94;69.71;99350.59;5032877;28;20030;-48
2022/02/03 05:44:39;;;;;;;21.92;11.07;;;;;;;8.33;70.20;99332.06;5039976;28;20048;-49
2022/02/03 05:47:45;;;;;;;12.90;8.63;;;;;;;8.29;70.00;99324.72;5094782;28;20077;-49
2022/02/03 06:01:10;;;;;;;112.55;10.82;;;;;;;7.55;71.14;99324.91;5071945;28;20123;-49
2022/02/03 06:06:33;;;;;;;97.97;17.77;;;;;;;7.34;71.48;99331.44;5071932;28;20032;-48
2022/02/03 06:14:53;;;;;;;71.75;32.08;;;;;;;7.39;71.91;99329.16;5072122;28;20043;-48
2022/02/03 06:22:48;;;;;;;69.22;10.65;;;;;;;7.60;72.96;99331.25;5071779;28;20059;-50
2022/02/03 06:27:45;;;;;;;32.08;9.50;;;;;;;7.66;72.08;99329.78;5088086;28;20036;-50
2022/02/03 06:30:16;;;;;;;35.13;11.55;;;;;;;7.62;72.13;99330.28;5092629;28;20024;-49
2022/02/03 06:32:43;;;;;;;201.90;12.50;;;;;;;7.62;71.83;99328.47;5097621;28;20046;-49
2022/02/03 06:35:12;;;;;;;135.70;11.10;;;;;;;7.61;72.21;99326.88;5093869;28;20028;-49
2022/02/03 06:37:37;;;;;;;259.25;14.07;;;;;;;7.62;71.91;99322.44;5092502;28;20019;-49
2022/02/03 06:40:06;;;;;;;166.05;12.85;;;;;;;7.65;72.10;99325.53;5092429;28;20027;-49
2022/02/03 06:42:32;;;;;;;134.52;9.90;;;;;;;7.67;71.83;99325.38;5092377;28;20058;-49
2022/02/03 06:45:11;;;;;;;21.55;10.82;;;;;;;7.61;72.05;99319.03;5092506;28;20032;-49
2022/02/03 06:47:49;;;;;;;31.45;10.23;;;;;;;7.53;72.46;99309.41;5093620;28;20064;-49
2022/02/03 06:50:41;;;;;;;92.10;13.20;;;;;;;7.57;72.33;99304.66;5093545;28;20475;-49
2022/02/03 06:55:55;;;;;;;43.53;34.38;;;;;;;7.65;72.42;99302.03;5093381;28;20045;-49
2022/02/03 06:58:26;;;;;;;49.15;13.60;;;;;;;7.77;72.34;99297.28;5093469;28;20020;-48
2022/02/03 07:03:23;;;;;;;75.85;10.10;;;;;;;7.82;72.35;99300.19;5092987;28;20685;-48
2022/02/03 07:05:49;;;;;;;159.00;9.82;;;;;;;7.75;71.31;99289.59;5092471;28;20047;-48
2022/02/03 07:08:17;;;;;;;63.38;9.30;;;;;;;7.65;71.56;99296.00;5093222;28;20124;-48
2022/02/03 07:10:44;;;;;;;83.65;9.60;;;;;;;7.64;72.13;99279.50;5093112;28;20030;-48
2022/02/03 07:13:10;;;;;;;57.17;11.07;;;;;;;7.66;72.55;99282.75;5093075;28;20020;-48
2022/02/03 07:15:36;;;;;;;60.55;10.52;;;;;;;7.70;72.12;99281.44;5093099;28;20024;-49
2022/02/03 07:18:03;;;;;;;89.82;14.10;;;;;;;7.72;71.96;99274.25;5093072;28;20016;-47
2022/02/03 07:20:30;;;;;;;96.55;21.73;;;;;;;7.59;72.34;99268.75;5091651;28;20020;-49
2022/02/03 07:22:57;;;;;;;116.28;12.35;;;;;;;7.54;72.19;99265.81;5092918;28;20024;-48
2022/02/03 07:25:23;;;;;;;35.67;12.57;;;;;;;7.60;72.46;99260.72;5091520;28;20016;-48
2022/02/03 07:27:48;;;;;;;51.28;12.02;;;;;;;7.73;72.66;99252.38;5091509;28;20032;-48
2022/02/03 07:30:14;;;;;;;41.65;10.85;;;;;;;7.87;72.26;99268.31;5091454;28;20510;-49
2022/02/03 07:32:40;;;;;;;58.17;10.98;;;;;;;7.92;71.57;99260.81;5091202;28;20097;-48
2022/02/03 07:35:09;;;;;;;34.72;10.98;;;;;;;7.98;71.52;99257.50;5092678;28;20107;-49
2022/02/03 07:37:46;;;;;;;60.65;13.25;;;;;;;8.08;71.99;99255.50;5092593;28;20059;-49
2022/02/03 07:40:13;;;;;;;75.57;14.30;;;;;;;8.17;71.82;99253.69;5092619;28;20027;-48
2022/02/03 07:42:40;;;;;;;43.92;10.68;;;;;;;8.25;71.71;99258.88;5091236;28;20024;-48
2022/02/03 07:45:07;;;;;;;37.88;14.70;;;;;;;8.31;70.73;99257.34;5091098;28;20027;-48
2022/02/03 07:47:33;;;;;;;24.30;9.10;;;;;;;8.34;71.12;99236.91;5092484;28;20028;-48
2022/02/03 07:49:58;;;;;;;28.15;9.88;;;;;;;8.39;70.60;99221.53;5092410;28;20023;-48
2022/02/03 07:52:24;;;;;;;92.65;16.10;;;;;;;8.44;70.75;99228.09;5092392;28;20024;-49
2022/02/03 07:54:50;;;;;;;112.13;11.07;;;;;;;8.46;70.25;99224.28;5092308;28;20016;-48
2022/02/03 07:57:16;;;;;;;25.73;10.60;;;;;;;8.50;70.70;99222.97;5090969;28;20036;-49
2022/02/03 07:59:41;;;;;;;131.70;10.80;;;;;;;8.64;70.20;99210.94;5090939;28;20020;-48
2022/02/03 08:02:07;;;;;;;29.20;10.80;;;;;;;8.67;70.07;99217.63;5090898;28;20028;-48
2022/02/03 08:04:41;;;;;;;33.85;13.10;;;;;;;8.78;70.31;99211.97;5092144;28;20026;-48
2022/02/03 08:07:07;;;;;;;25.63;11.02;;;;;;;8.93;69.89;99223.31;5092229;28;20035;-48
2022/02/03 08:09:44;;;;;;;412.50;367.60;;;;;;;9.08;69.47;99223.34;5092132;28;20386;-47
2022/02/03 08:12:12;;;;;;;139.10;124.85;;;;;;;9.25;68.58;99221.38;5092136;28;20493;-48
2022/02/03 08:14:46;;;;;;;484.75;354.75;;;;;;;9.50;68.12;99218.53;5092060;28;20043;-48
2022/02/03 08:17:19;;;;;;;65.50;52.22;;;;;;;9.63;67.13;99212.66;5092147;28;20035;-47
2022/02/03 08:22:49;;;;;;;32.45;17.80;;;;;;;9.74;66.44;99214.84;5082869;28;20061;-48
2022/02/03 08:25:22;;;;;;;58.58;36.58;;;;;;;9.81;66.27;99218.34;5090966;28;20379;-48
2022/02/03 08:33:16;;;;;;;23.77;17.92;;;;;;;9.97;65.77;99215.50;5075271;28;20549;-48
2022/02/03 08:35:46;;;;;;;22.15;13.30;;;;;;;10.02;65.36;99209.75;5091813;28;20409;-47
2022/02/03 08:43:19;;;;;;;25.30;13.10;;;;;;;10.15;64.73;99211.69;5092137;28;20490;-48
2022/02/03 08:45:45;;;;;;;32.40;13.55;;;;;;;9.97;65.19;99214.72;5091639;28;20028;-47
2022/02/03 08:48:13;;;;;;;28.02;15.55;;;;;;;9.83;65.36;99210.31;5090411;28;20043;-48
2022/02/03 08:50:39;;;;;;;19.88;13.23;;;;;;;9.68;65.48;99215.53;5090390;28;20035;-48
2022/02/03 08:53:14;;;;;;;20.30;13.10;;;;;;;9.75;65.78;99213.81;5091677;28;20013;-47
2022/02/03 08:56:00;;;;;;;19.92;12.35;;;;;;;9.90;65.59;99212.00;5091704;28;20028;-47
2022/02/03 08:58:46;;;;;;;27.00;14.73;;;;;;;9.95;65.33;99212.25;5091752;28;20028;-48
2022/02/03 09:44:54;;;;;;;13.95;11.88;;;;;;;10.55;58.96;99175.41;5094870;28;20032;-48
2022/02/03 09:58:11;;;;;;;30.52;18.98;;;;;;;10.23;61.35;99151.25;5094586;28;20017;-49
2022/02/03 10:00:47;;;;;;;29.85;26.67;;;;;;;10.50;60.22;99136.63;5094575;28;20024;-48
2022/02/03 10:03:20;;;;;;;28.60;22.33;;;;;;;10.79;59.71;99138.25;5094604;28;20024;-49
2022/02/03 10:05:56;;;;;;;18.73;15.35;;;;;;;11.35;58.60;99124.28;5094457;28;20032;-49
2022/02/03 10:08:22;;;;;;;19.58;13.43;;;;;;;12.32;56.65;99101.34;5094455;28;20024;-50
2022/02/03 10:10:48;;;;;;;16.05;12.32;;;;;;;13.03;55.17;99088.53;5094387;28;20600;-50
2022/02/03 10:13:20;;;;;;;18.13;12.90;;;;;;;13.26;53.56;99080.13;5093064;28;20047;-50
2022/02/03 10:15:46;;;;;;;16.70;11.77;;;;;;;13.26;52.42;99073.06;5093035;28;20390;-48
2022/02/03 10:18:29;;;;;;;17.90;11.82;;;;;;;12.93;52.39;99073.94;5094309;28;20065;-49
2022/02/03 10:20:56;;;;;;;24.65;16.38;;;;;;;12.58;53.78;99066.31;5094272;28;20024;-50
2022/02/03 10:23:24;;;;;;;19.25;12.60;;;;;;;12.57;53.12;99061.22;5094118;28;20012;-49
2022/02/03 10:25:55;;;;;;;12.90;10.20;;;;;;;12.11;53.80;99052.34;5093969;28;20109;-49
2022/02/03 10:28:24;;;;;;;15.85;11.23;;;;;;;11.86;55.36;99048.63;5094079;28;20444;-49
2022/02/03 10:30:57;;;;;;;14.90;9.70;;;;;;;12.00;55.07;99058.19;5093982;28;20437;-50
2022/02/03 10:33:36;;;;;;;14.80;10.63;;;;;;;12.57;54.48;99063.88;5093930;28;20101;-49
2022/02/03 10:36:11;;;;;;;18.25;11.43;;;;;;;13.70;53.20;99068.03;5093890;28;20048;-49
2022/02/03 10:47:07;;;;;;;13.95;9.18;;;;;;;15.28;47.20;99027.28;5093937;28;20421;-50
2022/02/03 11:08:11;;;;;;;20.63;9.38;;;;;;;13.51;51.20;98991.44;5093201;28;20028;-50
2022/02/03 11:10:43;;;;;;;9.98;7.95;;;;;;;13.88;49.84;98988.97;5093202;28;20031;-50
2022/02/03 11:13:10;;;;;;;21.20;13.80;;;;;;;14.29;49.78;98990.28;5093213;28;20025;-50
2022/02/03 11:15:36;;;;;;;16.25;12.65;;;;;;;14.55;48.34;98975.22;5093082;28;20032;-49
2022/02/03 11:18:07;;;;;;;24.13;13.23;;;;;;;14.50;48.17;98970.56;5091766;28;20017;-49
2022/02/03 11:20:38;;;;;;;13.52;9.40;;;;;;;14.37;48.84;98976.81;5091806;28;20401;-49
2022/02/03 11:28:55;;;;;;;12.02;7.90;;;;;;;14.45;48.29;98961.72;5092904;28;20020;-50
2022/02/03 11:40:15;;;;;;;16.33;9.85;;;;;;;15.94;46.78;98958.63;5092739;28;20032;-50
2022/02/03 11:46:08;;;;;;;12.75;8.55;;;;;;;17.82;42.77;98970.63;5037326;28;20044;-51
2022/02/03 11:50:04;;;;;;;13.63;8.40;;;;;;;17.90;43.45;98958.84;5049836;28;20494;-51
2022/02/03 11:54:55;;;;;;;11.43;7.88;;;;;;;19.19;39.94;98956.84;5049995;28;20029;-49
2022/02/03 11:57:39;;;;;;;12.27;8.55;;;;;;;20.07;39.21;98945.94;5049647;28;20021;-50
2022/02/03 12:02:57;;;;;;;9.70;8.02;;;;;;;21.17;36.54;98943.53;5049864;28;20158;-50
2022/02/03 12:05:49;;;;;;;11.43;7.93;;;;;;;21.48;36.67;98941.78;5049921;28;20581;-51
2022/02/03 12:19:29;;;;;;;11.77;9.52;;;;;;;21.29;35.86;98928.09;5049872;28;20043;-51
2022/02/03 12:22:27;;;;;;;12.75;9.85;;;;;;;20.61;36.53;98920.97;5071091;28;20126;-50
2022/02/03 12:25:12;;;;;;;12.18;9.60;;;;;;;20.22;37.27;98905.28;5092027;28;20113;-51
2022/02/03 12:28:03;;;;;;;15.40;11.40;;;;;;;20.13;37.72;98888.97;5091969;28;20035;-51
2022/02/03 12:30:38;;;;;;;7.78;6.90;;;;;;;19.94;36.24;98882.44;5091976;28;20101;-51
2022/02/03 12:38:47;;;;;;;8.93;6.90;;;;;;;20.30;36.35;98902.13;5091955;28;20070;-50
2022/02/03 12:41:18;;;;;;;9.88;7.32;;;;;;;20.35;36.22;98906.69;5090767;28;20028;-50
2022/02/03 12:43:59;;;;;;;9.93;7.60;;;;;;;20.44;36.68;98909.63;5090946;28;20433;-50
2022/02/03 12:46:26;;;;;;;11.25;7.78;;;;;;;20.81;36.36;98906.09;5091672;28;20043;-51
2022/02/03 12:48:58;;;;;;;12.10;8.02;;;;;;;21.17;35.90;98904.31;5090821;28;20524;-50
2022/02/03 12:51:24;;;;;;;14.15;9.15;;;;;;;21.32;35.47;98915.00;5091712;28;20024;-51
2022/02/03 12:53:51;;;;;;;12.70;8.63;;;;;;;21.43;35.41;98907.03;5073576;28;20020;-51
2022/02/03 12:56:27;;;;;;;12.10;8.73;;;;;;;21.33;35.61;98902.47;5090482;28;20028;-51
2022/02/03 12:58:59;;;;;;;10.23;8.85;;;;;;;20.90;35.45;98891.97;5091793;28;20028;-51
2022/02/03 13:01:34;;;;;;;18.42;11.95;;;;;;;20.61;36.24;98891.63;5092278;28;20032;-51
2022/02/03 13:04:15;;;;;;;8.98;8.07;;;;;;;20.60;36.02;98894.53;5095814;28;20371;-51
2022/02/03 13:06:52;;;;;;;15.07;12.95;;;;;;;19.79;36.91;98879.69;5095649;28;20032;-51
2022/02/03 13:09:27;;;;;;;18.30;11.68;;;;;;;19.04;38.50;98871.59;5095836;28;20161;-50
2022/02/03 13:11:56;;;;;;;20.02;11.18;;;;;;;18.95;39.37;98868.53;5095580;28;20081;-50
2022/02/03 13:14:43;;;;;;;17.15;12.07;;;;;;;18.79;39.28;98859.59;5095479;28;20025;-50
2022/02/03 13:17:14;;;;;;;21.83;16.83;;;;;;;18.19;39.27;98855.97;5095429;28;20024;-50
2022/02/03 13:19:57;;;;;;;49.05;44.78;;;;;;;17.26;41.40;98850.28;5095452;28;20028;-50
2022/02/03 13:27:55;;;;;;;33.45;25.65;;;;;;;15.76;46.41;98851.00;5095271;28;20028;-51
2022/02/03 13:30:37;;;;;;;11.00;9.48;;;;;;;15.98;46.22;98835.34;5095173;28;20469;-50
2022/02/03 13:33:05;;;;;;;11.60;8.57;;;;;;;16.20;45.74;98837.38;5094929;28;20072;-50
2022/02/03 13:35:49;;;;;;;22.35;12.63;;;;;;;16.33;46.38;98829.19;5095122;28;20024;-50
2022/02/03 13:38:31;;;;;;;25.23;22.25;;;;;;;16.17;46.02;98823.56;5093747;28;20040;-50
2022/02/03 13:41:12;;;;;;;26.75;23.88;;;;;;;16.25;46.04;98811.03;5094975;28;20020;-49
2022/02/03 13:43:42;;;;;;;25.15;19.60;;;;;;;16.39;46.13;98822.94;5094905;28;20067;-50
2022/02/03 13:46:09;;;;;;;19.60;12.55;;;;;;;16.55;45.79;98816.13;5094846;28;20103;-49
2022/02/03 13:48:38;;;;;;;19.85;12.73;;;;;;;16.47;45.58;98813.84;5094858;28;20095;-50
2022/02/03 13:51:08;;;;;;;12.45;7.63;;;;;;;16.35;45.57;98822.59;5094760;28;20512;-50
2022/02/03 13:53:46;;;;;;;13.38;8.80;;;;;;;16.10;46.20;98812.31;5094794;28;20038;-50
2022/02/03 14:21:18;;;;;;;12.52;8.32;;;;;;;15.39;48.06;98806.19;5083461;28;20040;-50
2022/02/03 14:29:16;;;;;;;9.63;6.22;;;;;;;15.43;47.62;98794.13;5094064;28;20419;-50
2022/02/03 14:31:43;;;;;;;14.63;8.80;;;;;;;15.40;48.31;98783.22;5093777;28;20035;-50
2022/02/03 14:34:15;;;;;;;13.35;7.35;;;;;;;15.43;47.93;98790.69;5093985;28;20398;-50
2022/02/03 14:36:45;;;;;;;7.65;5.93;;;;;;;15.37;48.06;98790.59;5093930;28;20024;-49
2022/02/03 14:39:22;;;;;;;11.82;6.55;;;;;;;15.18;48.08;98791.69;5093900;28;20023;-49
2022/02/03 14:41:49;;;;;;;13.40;8.07;;;;;;;15.06;48.78;98789.03;5092825;28;20447;-50
2022/02/03 14:44:17;;;;;;;10.98;6.50;;;;;;;15.05;48.42;98789.25;5092395;28;20034;-49
2022/02/03 14:46:44;;;;;;;10.38;6.90;;;;;;;15.02;48.81;98779.94;5093699;28;20047;-49
2022/02/03 14:49:10;;;;;;;15.70;6.93;;;;;;;15.07;49.24;98768.69;5093663;28;20540;-50
2022/02/03 14:59:37;;;;;;;20.08;8.90;;;;;;;15.16;49.69;98764.69;5093747;28;20450;-49
2022/02/03 15:02:07;;;;;;;13.93;10.65;;;;;;;15.14;49.33;98754.31;5093432;28;20486;-50
2022/02/03 15:04:34;;;;;;;15.07;8.52;;;;;;;14.97;49.72;98750.75;5093384;28;20024;-49
2022/02/03 15:07:03;;;;;;;12.25;7.15;;;;;;;14.96;50.04;98752.56;5093339;28;20536;-49
2022/02/03 15:12:09;;;;;;;21.35;8.30;;;;;;;14.98;49.96;98745.22;5093291;28;20024;-50
2022/02/03 15:14:35;;;;;;;12.57;6.07;;;;;;;15.03;49.29;98731.34;5093244;28;20089;-50
2022/02/03 15:17:00;;;;;;;10.55;6.03;;;;;;;15.00;49.48;98723.06;5091776;28;20016;-50
2022/02/03 15:19:26;;;;;;;10.27;5.95;;;;;;;14.89;49.39;98733.38;5091808;28;20428;-49
2022/02/03 15:21:52;;;;;;;14.05;6.72;;;;;;;14.78;49.70;98742.88;5091681;28;20026;-49
2022/02/03 15:24:18;;;;;;;13.70;8.27;;;;;;;14.63;49.18;98747.78;5092739;28;20023;-49
2022/02/03 15:26:43;;;;;;;16.60;12.18;;;;;;;14.52;49.62;98749.31;5090935;28;20023;-49
2022/02/03 15:29:11;;;;;;;11.77;6.70;;;;;;;14.41;49.73;98744.81;5091513;28;20067;-50
2022/02/03 15:31:37;;;;;;;11.43;9.57;;;;;;;14.27;50.08;98740.75;5092521;28;20498;-49
2022/02/03 15:34:10;;;;;;;12.95;5.80;;;;;;;14.22;50.06;98748.50;5092881;28;20024;-49
2022/02/03 15:36:37;;;;;;;12.68;8.95;;;;;;;14.03;50.64;98750.38;5091439;28;20122;-50
2022/02/03 15:39:10;;;;;;;7.85;6.00;;;;;;;13.89;52.39;98750.50;5092678;28;20069;-50
2022/02/03 15:41:39;;;;;;;17.77;11.98;;;;;;;13.87;54.84;98746.50;5092690;28;20032;-50
2022/02/03 15:44:05;;;;;;;11.93;6.15;;;;;;;13.81;53.35;98742.91;5092561;28;20020;-49
2022/02/03 15:46:33;;;;;;;15.38;7.03;;;;;;;13.73;52.92;98738.72;5092474;28;20059;-49
2022/02/03 16:17:14;;;;;;;12.98;7.57;;;;;;;12.96;54.27;98717.09;5092063;28;20111;-49
2022/02/03 16:20:00;;;;;;;18.42;7.40;;;;;;;12.92;54.52;98723.81;5092072;28;20012;-50
2022/02/03 16:22:43;;;;;;;11.07;7.85;;;;;;;12.95;54.30;98726.00;5092037;28;20059;-49
2022/02/03 16:25:25;;;;;;;10.27;5.75;;;;;;;12.94;54.25;98722.56;5090615;28;20628;-49
2022/02/03 16:54:58;;;;;;;14.55;6.90;;;;;;;11.92;57.32;98713.84;5092052;28;20101;-48
2022/02/03 16:57:26;;;;;;;16.15;6.47;;;;;;;11.88;57.82;98718.66;5091624;28;20028;-49
2022/02/03 17:00:00;;;;;;;14.50;6.70;;;;;;;11.83;58.14;98713.25;5091690;28;20020;-49
2022/02/03 17:02:26;;;;;;;23.27;6.53;;;;;;;11.77;58.22;98704.34;5091752;28;20032;-50
2022/02/03 17:04:52;;;;;;;9.35;5.38;;;;;;;11.76;58.51;98713.25;5091711;28;20375;-50
2022/02/03 17:07:19;;;;;;;16.80;5.80;;;;;;;11.72;58.66;98714.69;5090251;28;20039;-49
2022/02/03 17:09:45;;;;;;;25.00;8.00;;;;;;;11.73;57.55;98710.22;5091563;28;20026;-49
2022/02/03 17:12:11;;;;;;;19.63;8.30;;;;;;;11.83;57.79;98704.53;5090256;28;20023;-49
2022/02/03 17:14:37;;;;;;;13.75;8.00;;;;;;;11.77;57.95;98699.09;5091503;28;20493;-49
2022/02/03 17:17:03;;;;;;;15.25;8.77;;;;;;;11.72;58.43;98690.22;5091520;28;20016;-49
2022/02/03 17:19:29;;;;;;;14.35;5.80;;;;;;;11.78;58.25;98692.81;5091517;28;20028;-49
2022/02/03 17:21:55;;;;;;;12.07;6.20;;;;;;;11.87;57.59;98679.44;5091429;28;20085;-49
2022/02/03 17:24:21;;;;;;;50.50;20.42;;;;;;;11.93;57.96;98681.25;5091351;28;20406;-49
2022/02/03 17:29:34;;;;;;;15.93;4.87;;;;;;;11.83;57.16;98694.84;5091482;28;20024;-49
2022/02/03 17:32:17;;;;;;;5.10;3.70;;;;;;;11.76;56.23;98708.00;5089795;28;20076;-50
2022/02/03 18:08:01;;;;;;;12.52;5.20;;;;;;;11.97;53.90;98700.84;5071982;28;20036;-49
2022/02/03 18:10:33;;;;;;;8.93;3.85;;;;;;;12.20;52.16;98697.72;5071762;28;20071;-50
2022/02/03 18:19:33;;;;;;;7.00;3.60;;;;;;;12.83;49.30;98691.66;5072088;28;20101;-49
2022/02/03 18:33:16;;;;;;;8.63;6.15;;;;;;;13.22;46.31;98694.16;5071354;28;20036;-49
2022/02/03 18:45:51;;;;;;;3.90;1.63;;;;;;;13.33;43.71;98680.31;5076991;28;20047;-50
2022/02/03 18:51:29;;;;;;;6.43;2.80;;;;;;;13.59;41.35;98648.38;5051263;28;20132;-50
2022/02/03 18:54:03;;;;;;;4.15;1.85;;;;;;;13.69;41.66;98652.34;5051229;28;20043;-49
2022/02/03 20:09:42;;;;;;;6.45;1.70;;;;;;;13.73;41.86;98662.22;5092249;28;20035;-50
2022/02/03 20:11:28;;;;;;;;;;;;;;;13.74;42.04;98648.03;5087923;28;20418;-50
2022/02/03 20:13:54;;;;;;;4.57;2.25;;;;;;;13.72;42.22;98642.16;5092218;28;20363;-50
2022/02/03 20:16:22;;;;;;;2.58;1.35;;;;;;;13.70;41.77;98648.66;5092117;28;20493;-49
2022/02/03 20:18:48;;;;;;;11.90;5.35;;;;;;;13.53;42.45;98645.81;5092122;28;20020;-50
2022/02/03 20:21:14;;;;;;;7.28;3.40;;;;;;;13.45;42.61;98644.28;5092121;28;20146;-50
2022/02/03 20:23:44;;;;;;;7.13;1.85;;;;;;;13.38;42.33;98651.44;5092118;28;20059;-50
2022/02/03 20:26:13;;;;;;;13.55;3.38;;;;;;;13.32;42.86;98647.88;5091936;28;20036;-50
2022/02/03 20:28:38;;;;;;;3.95;1.55;;;;;;;13.34;42.81;98653.75;5091999;28;20024;-50
2022/02/03 20:31:04;;;;;;;13.05;5.65;;;;;;;13.28;42.96;98669.56;5091886;28;20524;-50
2022/02/03 20:33:30;;;;;;;7.95;3.10;;;;;;;13.19;43.47;98685.66;5090447;28;20173;-50
2022/02/03 20:35:56;;;;;;;14.77;5.78;;;;;;;13.16;44.11;98694.03;5091856;28;20032;-49
2022/02/03 20:38:22;;;;;;;7.78;2.33;;;;;;;13.19;43.86;98693.56;5091779;28;20024;-49
2022/02/03 20:40:49;;;;;;;8.75;1.92;;;;;;;13.23;43.20;98727.41;5091909;28;20027;-50
2022/02/03 20:43:15;;;;;;;4.63;2.17;;;;;;;13.18;43.35;98733.34;5090483;28;20486;-50
2022/02/03 20:45:43;;;;;;;6.40;1.75;;;;;;;13.22;43.53;98752.97;5091739;28;20056;-49
2022/02/03 20:48:09;;;;;;;12.80;2.75;;;;;;;13.28;43.31;98756.53;5090468;28;20039;-49
2022/02/03 20:50:36;;;;;;;13.35;2.08;;;;;;;13.42;42.95;98755.47;5091759;28;20114;-49
2022/02/03 20:53:04;;;;;;;9.80;3.55;;;;;;;13.46;43.05;98772.47;5091782;28;20020;-49
2022/02/03 20:55:29;;;;;;;11.50;5.90;;;;;;;13.48;43.53;98766.94;5091703;28;20098;-49
2022/02/03 20:57:55;;;;;;;12.15;3.60;;;;;;;13.44;43.77;98773.69;5090394;28;20020;-49
2022/02/03 21:00:29;;;;;;;11.02;3.05;;;;;;;13.44;43.89;98778.94;5091627;28;20107;-49
2022/02/03 21:03:11;;;;;;;10.30;3.30;;;;;;;13.41;44.36;98774.13;5090431;28;20403;-50
2022/02/03 21:05:36;;;;;;;13.27;3.15;;;;;;;13.41;44.31;98774.13;5091543;28;20020;-49
2022/02/03 21:08:02;;;;;;;4.47;2.35;;;;;;;13.32;44.08;98782.31;5091612;28;20013;-49
2022/02/03 21:10:30;;;;;;;6.43;2.88;;;;;;;13.13;44.80;98791.13;5091564;28;20523;-50
2022/02/03 21:12:57;;;;;;;13.70;3.38;;;;;;;12.92;45.40;98797.56;5090231;28;20028;-49
2022/02/03 21:15:30;;;;;;;8.27;2.80;;;;;;;12.87;45.85;98795.56;5090193;28;20059;-49
2022/02/03 21:18:01;;;;;;;8.85;2.92;;;;;;;12.90;45.49;98800.41;5091596;28;20028;-49
2022/02/03 21:20:27;;;;;;;5.97;2.58;;;;;;;12.86;45.94;98807.13;5091518;28;20075;-49
2022/02/03 21:22:53;;;;;;;9.38;3.60;;;;;;;12.83;46.15;98812.81;5091460;28;20486;-49
2022/02/03 21:27:48;;;;;;;11.43;3.95;;;;;;;12.87;46.45;98815.81;5095269;28;20028;-48
2022/02/03 21:30:16;;;;;;;7.53;3.35;;;;;;;12.82;46.28;98819.09;5095239;28;20016;-49
2022/02/03 21:32:43;;;;;;;9.55;3.42;;;;;;;12.75;46.55;98823.59;5094963;28;20036;-49
2022/02/03 21:35:10;;;;;;;8.27;3.85;;;;;;;12.68;46.90;98825.47;5093773;28;20032;-49
2022/02/03 21:37:37;;;;;;;8.18;3.58;;;;;;;12.55;47.20;98831.59;5095075;28;20032;-50
2022/02/03 21:40:04;;;;;;;10.30;4.85;;;;;;;12.39;47.88;98830.22;5095023;28;20020;-49
2022/02/03 21:42:29;;;;;;;10.32;4.70;;;;;;;12.28;48.51;98834.31;5095013;28;20031;-50
2022/02/03 21:44:55;;;;;;;10.90;4.60;;;;;;;12.24;48.74;98838.38;5094890;28;20021;-49
2022/02/03 21:47:21;;;;;;;13.00;5.32;;;;;;;12.15;49.21;98835.19;5094857;28;20520;-49
2022/02/03 21:49:46;;;;;;;10.07;4.85;;;;;;;12.10;49.56;98834.19;5094827;28;20485;-49
2022/02/03 21:52:19;;;;;;;8.68;4.85;;;;;;;12.12;49.68;98840.84;5094795;28;20024;-49
2022/02/03 21:54:45;;;;;;;8.20;4.22;;;;;;;12.07;49.85;98851.16;5094809;28;20028;-49
2022/02/03 21:57:12;;;;;;;10.48;5.05;;;;;;;12.08;50.10;98847.53;5093411;28;20024;-49
2022/02/03 21:59:37;;;;;;;9.50;4.78;;;;;;;12.13;49.77;98850.38;5093355;28;20020;-49
2022/02/03 22:02:08;;;;;;;11.35;5.40;;;;;;;12.19;49.91;98862.69;5094596;28;20035;-49
2022/02/03 22:04:34;;;;;;;15.68;5.90;;;;;;;12.19;50.36;98856.59;5093293;28;20032;-49
2022/02/03 22:07:00;;;;;;;9.05;5.55;;;;;;;12.21;50.55;98866.94;5094549;28;20102;-49
2022/02/03 22:09:26;;;;;;;15.93;5.93;;;;;;;12.20;50.71;98871.38;5094456;28;20484;-48
2022/02/03 22:11:52;;;;;;;7.45;5.82;;;;;;;12.26;50.55;98865.28;5093143;28;20060;-49
2022/02/03 22:14:18;;;;;;;12.05;7.00;;;;;;;12.25;51.04;98866.28;5094354;28;20036;-49